Time;durP1;ratioP1;P1;durP2;ratioP2;P2;SDS_P1;SDS_P2;PMS_P1;PMS_P2;Temp;Humidity;BMP_temperature;BMP_pressure;BME280_temperature;BME280_humidity;BME280_pressure;Samples;Min_cycle;Max_cycle;Signal;HPM_P1;HPM_P2
2022/10/27 00:01:42;;;;;;;12.05;4.80;;;;;;;;;;5024437;28;20137;-82
2022/10/27 00:04:08;;;;;;;16.85;4.63;;;;;;;;;;5020925;28;20402;-79
2022/10/27 00:06:36;;;;;;;9.18;4.60;;;;;;;;;;5023721;28;20487;-81
2022/10/27 00:09:02;;;;;;;14.48;4.70;;;;;;;;;;5021537;28;20423;-82
2022/10/27 00:11:29;;;;;;;10.60;4.60;;;;;;;;;;5024780;28;20036;-81
2022/10/27 00:13:55;;;;;;;11.60;3.92;;;;;;;;;;5021440;28;20080;-80
2022/10/27 00:16:22;;;;;;;9.18;4.05;;;;;;;;;;5023071;28;20106;-80
2022/10/27 00:18:49;;;;;;;12.55;4.35;;;;;;;;;;5002656;28;20049;-81
2022/10/27 00:21:16;;;;;;;11.27;3.95;;;;;;;;;;5022690;28;20330;-80
2022/10/27 00:23:43;;;;;;;11.82;3.63;;;;;;;;;;5021854;28;20046;-80
2022/10/27 00:26:10;;;;;;;12.20;3.97;;;;;;;;;;5009636;28;20041;-80
2022/10/27 00:28:37;;;;;;;9.73;3.80;;;;;;;;;;5026607;28;20754;-81
2022/10/27 00:31:05;;;;;;;10.15;3.45;;;;;;;;;;5026426;28;20121;-80
2022/10/27 00:33:31;;;;;;;11.20;3.83;;;;;;;;;;5024800;28;20068;-81
2022/10/27 00:36:04;;;;;;;20.02;3.92;;;;;;;;;;5026311;28;20203;-80
2022/10/27 00:38:30;;;;;;;7.03;3.22;;;;;;;;;;5025675;28;20409;-80
2022/10/27 00:40:57;;;;;;;15.27;4.68;;;;;;;;;;5025299;28;20103;-80
2022/10/27 00:43:23;;;;;;;7.82;3.78;;;;;;;;;;5024729;28;20045;-81
2022/10/27 00:45:50;;;;;;;13.88;3.72;;;;;;;;;;5025759;28;20441;-80
2022/10/27 00:48:16;;;;;;;10.95;4.13;;;;;;;;;;5025354;28;20194;-81
2022/10/27 00:50:43;;;;;;;11.27;4.00;;;;;;;;;;5024794;28;20046;-80
2022/10/27 00:53:10;;;;;;;11.07;3.65;;;;;;;;;;5023934;28;20053;-80
2022/10/27 00:55:38;;;;;;;8.88;3.72;;;;;;;;;;5025183;28;20462;-80
2022/10/27 00:58:06;;;;;;;8.90;3.80;;;;;;;;;;5008725;28;20136;-79
2022/10/27 01:00:37;;;;;;;10.88;3.60;;;;;;;;;;5026524;28;20058;-80
2022/10/27 01:03:05;;;;;;;7.40;3.22;;;;;;;;;;5022591;28;20080;-79
2022/10/27 01:05:32;;;;;;;9.77;3.60;;;;;;;;;;5025904;28;20114;-80
2022/10/27 01:07:59;;;;;;;12.35;3.60;;;;;;;;;;5025615;28;20053;-80
2022/10/27 01:10:26;;;;;;;8.75;3.88;;;;;;;;;;5007915;28;20072;-80
2022/10/27 01:12:53;;;;;;;12.82;3.80;;;;;;;;;;5023177;28;20053;-80
2022/10/27 01:15:27;;;;;;;19.23;3.95;;;;;;;;;;5023757;28;20069;-80
2022/10/27 01:17:54;;;;;;;6.28;3.60;;;;;;;;;;5021922;28;20113;-80
2022/10/27 01:20:32;;;;;;;7.72;3.33;;;;;;;;;;5005490;28;20121;-80
2022/10/27 01:23:02;;;;;;;11.35;3.97;;;;;;;;;;5019869;28;20050;-80
2022/10/27 01:25:31;;;;;;;9.75;3.58;;;;;;;;;;5022257;28;20046;-80
2022/10/27 01:28:16;;;;;;;16.63;3.90;;;;;;;;;;5027407;28;20105;-80
2022/10/27 01:30:54;;;;;;;20.83;4.63;;;;;;;;;;5010777;28;20466;-80
2022/10/27 01:33:23;;;;;;;13.85;3.28;;;;;;;;;;5026484;28;20050;-80
2022/10/27 01:35:55;;;;;;;11.80;3.83;;;;;;;;;;5023781;28;20049;-80
2022/10/27 01:38:24;;;;;;;7.72;3.88;;;;;;;;;;5015812;28;20077;-79
2022/10/27 01:40:57;;;;;;;13.30;4.18;;;;;;;;;;5013314;28;20056;-80
2022/10/27 01:43:25;;;;;;;9.75;3.72;;;;;;;;;;4995549;28;20085;-79
2022/10/27 01:45:53;;;;;;;7.47;3.67;;;;;;;;;;4997023;28;20138;-80
2022/10/27 01:48:20;;;;;;;5.55;3.25;;;;;;;;;;5015614;28;20314;-79
2022/10/27 01:50:46;;;;;;;7.88;3.88;;;;;;;;;;5016071;28;20053;-79
2022/10/27 01:53:31;;;;;;;10.23;3.92;;;;;;;;;;5014981;28;20060;-79
2022/10/27 01:56:04;;;;;;;8.35;3.75;;;;;;;;;;5016109;28;20056;-79
2022/10/27 01:58:39;;;;;;;11.85;3.88;;;;;;;;;;5016772;28;20054;-79
2022/10/27 02:01:11;;;;;;;6.93;3.85;;;;;;;;;;5017394;28;20532;-79
2022/10/27 02:03:59;;;;;;;9.50;3.65;;;;;;;;;;5018106;28;20062;-79
2022/10/27 02:06:40;;;;;;;11.02;4.00;;;;;;;;;;5017414;28;20153;-80
2022/10/27 02:09:15;;;;;;;9.02;3.88;;;;;;;;;;5017562;28;20061;-79
2022/10/27 02:11:42;;;;;;;10.70;4.03;;;;;;;;;;5016347;28;20547;-79
2022/10/27 02:14:09;;;;;;;16.33;4.18;;;;;;;;;;5015678;28;20514;-80
2022/10/27 02:16:41;;;;;;;12.82;4.35;;;;;;;;;;5019389;28;20054;-79
2022/10/27 02:19:12;;;;;;;7.13;3.88;;;;;;;;;;5018156;28;20069;-80
2022/10/27 02:21:40;;;;;;;7.35;4.20;;;;;;;;;;5020139;28;20149;-80
2022/10/27 02:24:06;;;;;;;9.75;4.13;;;;;;;;;;5017799;28;20050;-80
2022/10/27 02:26:44;;;;;;;9.93;4.07;;;;;;;;;;5020017;28;20060;-80
2022/10/27 02:29:14;;;;;;;13.02;4.53;;;;;;;;;;5019453;28;20069;-79
2022/10/27 02:31:43;;;;;;;11.02;4.20;;;;;;;;;;5003051;28;20050;-78
2022/10/27 02:34:09;;;;;;;8.00;3.88;;;;;;;;;;5018681;28;20046;-83
2022/10/27 02:36:36;;;;;;;8.77;4.38;;;;;;;;;;5020190;28;20076;-80
2022/10/27 02:39:02;;;;;;;6.78;3.60;;;;;;;;;;5018033;28;20167;-79
2022/10/27 02:41:29;;;;;;;9.63;4.35;;;;;;;;;;5025978;28;20040;-79
2022/10/27 02:43:55;;;;;;;11.35;4.60;;;;;;;;;;5030913;28;20049;-80
2022/10/27 02:46:21;;;;;;;9.75;5.22;;;;;;;;;;5027704;28;20050;-80
2022/10/27 02:48:48;;;;;;;9.60;4.97;;;;;;;;;;5027485;28;20057;-79
2022/10/27 02:51:14;;;;;;;12.95;5.38;;;;;;;;;;5034685;28;20117;-79
2022/10/27 02:53:40;;;;;;;12.13;4.97;;;;;;;;;;5032570;28;20046;-79
2022/10/27 02:56:07;;;;;;;9.80;4.57;;;;;;;;;;5027112;28;20056;-79
2022/10/27 02:58:34;;;;;;;9.35;4.65;;;;;;;;;;5023178;28;20132;-79
2022/10/27 03:01:01;;;;;;;12.18;5.00;;;;;;;;;;5022824;28;20316;-80
2022/10/27 03:03:27;;;;;;;10.40;4.55;;;;;;;;;;5020998;28;20065;-80
2022/10/27 03:05:53;;;;;;;9.05;4.47;;;;;;;;;;5022880;28;20065;-80
2022/10/27 03:08:20;;;;;;;10.70;4.88;;;;;;;;;;5023030;28;20061;-79
2022/10/27 03:10:46;;;;;;;10.68;5.32;;;;;;;;;;5020486;28;20046;-79
2022/10/27 03:13:13;;;;;;;10.60;5.03;;;;;;;;;;5015216;28;20458;-80
2022/10/27 03:15:39;;;;;;;9.90;4.60;;;;;;;;;;5016570;28;20068;-79
2022/10/27 03:18:05;;;;;;;9.02;4.13;;;;;;;;;;5020555;28;20072;-82
2022/10/27 03:20:32;;;;;;;5.55;3.50;;;;;;;;;;5023159;28;20429;-78
2022/10/27 03:22:58;;;;;;;8.50;4.55;;;;;;;;;;5022339;28;20046;-80
2022/10/27 03:25:24;;;;;;;8.00;4.25;;;;;;;;;;5022617;28;20204;-81
2022/10/27 03:27:51;;;;;;;9.48;4.38;;;;;;;;;;5023823;28;20436;-80
2022/10/27 03:30:18;;;;;;;11.85;4.70;;;;;;;;;;5023967;28;20601;-81
2022/10/27 03:32:46;;;;;;;7.63;4.28;;;;;;;;;;5021874;28;20056;-80
2022/10/27 03:35:13;;;;;;;8.02;4.20;;;;;;;;;;5022670;28;20054;-81
2022/10/27 03:37:39;;;;;;;7.75;4.00;;;;;;;;;;5023373;28;20149;-80
2022/10/27 03:40:06;;;;;;;7.78;4.38;;;;;;;;;;5021091;28;20129;-80
2022/10/27 03:42:32;;;;;;;8.07;4.75;;;;;;;;;;5021357;28;20145;-81
2022/10/27 03:44:59;;;;;;;8.50;4.50;;;;;;;;;;5018239;28;20073;-79
2022/10/27 03:47:25;;;;;;;9.60;4.60;;;;;;;;;;5018408;28;20046;-82
2022/10/27 03:49:51;;;;;;;11.00;4.68;;;;;;;;;;5018906;28;20341;-80
2022/10/27 03:52:18;;;;;;;13.77;4.38;;;;;;;;;;5022322;28;20052;-78
2022/10/27 03:54:44;;;;;;;11.85;5.32;;;;;;;;;;5021837;28;20054;-81
2022/10/27 03:57:11;;;;;;;7.63;4.32;;;;;;;;;;5023468;28;20056;-80
2022/10/27 03:59:38;;;;;;;7.70;4.28;;;;;;;;;;5022030;28;20067;-80
2022/10/27 04:02:04;;;;;;;9.23;4.43;;;;;;;;;;5022046;28;20113;-80
2022/10/27 04:04:32;;;;;;;8.45;4.63;;;;;;;;;;5020652;28;20269;-78
2022/10/27 04:06:59;;;;;;;10.20;4.38;;;;;;;;;;5023665;28;20122;-80
2022/10/27 04:09:25;;;;;;;11.73;4.20;;;;;;;;;;5022171;28;20137;-80
2022/10/27 04:11:51;;;;;;;7.68;4.18;;;;;;;;;;5023234;28;20433;-80
2022/10/27 04:14:18;;;;;;;9.48;4.45;;;;;;;;;;5022471;28;20049;-80
2022/10/27 04:16:50;;;;;;;7.72;4.10;;;;;;;;;;5024616;28;20054;-80
2022/10/27 04:19:17;;;;;;;7.43;4.05;;;;;;;;;;5019976;28;20201;-80
2022/10/27 04:21:43;;;;;;;8.32;4.28;;;;;;;;;;5023871;28;20054;-80
2022/10/27 04:24:10;;;;;;;5.90;3.92;;;;;;;;;;5021736;28;20054;-80
2022/10/27 04:26:36;;;;;;;7.35;4.07;;;;;;;;;;5024094;28;20117;-80
2022/10/27 04:29:03;;;;;;;6.20;3.75;;;;;;;;;;5024185;28;20102;-79
2022/10/27 04:31:29;;;;;;;7.82;4.20;;;;;;;;;;5028124;28;20121;-79
2022/10/27 04:33:56;;;;;;;9.32;4.07;;;;;;;;;;5026457;28;20046;-81
2022/10/27 04:36:22;;;;;;;8.55;4.10;;;;;;;;;;5026803;28;20160;-81
2022/10/27 04:38:49;;;;;;;10.77;4.35;;;;;;;;;;5030127;28;20113;-81
2022/10/27 04:41:15;;;;;;;8.02;4.53;;;;;;;;;;5027728;28;20062;-79
2022/10/27 04:43:42;;;;;;;5.82;4.20;;;;;;;;;;5009070;28;20577;-80
2022/10/27 04:46:08;;;;;;;6.53;3.40;;;;;;;;;;5028313;28;20060;-82
2022/10/27 04:48:34;;;;;;;5.03;3.50;;;;;;;;;;5028481;28;20102;-81
2022/10/27 04:51:01;;;;;;;6.55;3.40;;;;;;;;;;5028060;28;20060;-81
2022/10/27 04:53:27;;;;;;;15.13;7.50;;;;;;;;;;5026302;28;20054;-80
2022/10/27 04:55:54;;;;;;;7.63;4.07;;;;;;;;;;5016999;28;20386;-80
2022/10/27 04:58:20;;;;;;;5.45;3.60;;;;;;;;;;5014387;28;20052;-80
2022/10/27 05:00:49;;;;;;;5.32;3.20;;;;;;;;;;5017194;28;20060;-80
2022/10/27 05:03:16;;;;;;;9.98;3.47;;;;;;;;;;5022696;28;20056;-79
2022/10/27 05:05:42;;;;;;;5.80;3.67;;;;;;;;;;5022013;28;20056;-81
2022/10/27 05:08:09;;;;;;;5.30;3.75;;;;;;;;;;5021801;28;20080;-80
2022/10/27 05:10:35;;;;;;;6.70;3.67;;;;;;;;;;5024874;28;20153;-79
2022/10/27 05:13:01;;;;;;;8.30;3.95;;;;;;;;;;5023184;28;20049;-80
2022/10/27 05:15:28;;;;;;;8.35;3.75;;;;;;;;;;5025935;28;20052;-80
2022/10/27 05:17:54;;;;;;;9.63;4.35;;;;;;;;;;5026611;28;20042;-79
2022/10/27 05:20:21;;;;;;;7.70;4.25;;;;;;;;;;5009649;28;20461;-79
2022/10/27 05:22:47;;;;;;;11.52;5.10;;;;;;;;;;5022650;28;20104;-79
2022/10/27 05:25:14;;;;;;;10.52;4.40;;;;;;;;;;5021770;28;20046;-80
2022/10/27 05:27:40;;;;;;;9.85;4.22;;;;;;;;;;5023880;28;20088;-80
2022/10/27 05:30:07;;;;;;;7.28;4.38;;;;;;;;;;5023455;28;20054;-80
2022/10/27 05:32:34;;;;;;;13.32;4.90;;;;;;;;;;5004278;28;20049;-79
2022/10/27 05:35:00;;;;;;;9.32;4.72;;;;;;;;;;5006357;28;20061;-80
2022/10/27 05:37:26;;;;;;;10.63;4.60;;;;;;;;;;5025520;28;20049;-80
2022/10/27 05:39:53;;;;;;;11.82;5.22;;;;;;;;;;5023534;28;20060;-80
2022/10/27 05:42:19;;;;;;;9.88;5.38;;;;;;;;;;5025109;28;20060;-80
2022/10/27 05:44:46;;;;;;;10.85;4.90;;;;;;;;;;5024262;28;20474;-80
2022/10/27 05:47:13;;;;;;;8.63;4.95;;;;;;;;;;5007983;28;20107;-80
2022/10/27 05:49:39;;;;;;;9.40;5.20;;;;;;;;;;5024451;28;20046;-79
2022/10/27 05:52:06;;;;;;;10.07;4.65;;;;;;;;;;5025702;28;20414;-79
2022/10/27 05:54:32;;;;;;;10.35;4.90;;;;;;;;;;5024120;28;20057;-79
2022/10/27 05:56:58;;;;;;;8.77;4.45;;;;;;;;;;5026868;28;20072;-80
2022/10/27 05:59:25;;;;;;;8.50;4.40;;;;;;;;;;5025037;28;20049;-77
2022/10/27 06:01:51;;;;;;;7.57;4.03;;;;;;;;;;5024414;28;20077;-80
2022/10/27 06:04:18;;;;;;;7.38;3.70;;;;;;;;;;5023032;28;20549;-81
2022/10/27 06:06:44;;;;;;;9.77;4.20;;;;;;;;;;5025949;28;20137;-81
2022/10/27 06:09:10;;;;;;;11.45;4.13;;;;;;;;;;5024907;28;20075;-80
2022/10/27 06:11:36;;;;;;;11.13;4.55;;;;;;;;;;5019976;28;20494;-81
2022/10/27 06:14:03;;;;;;;7.47;4.50;;;;;;;;;;5028420;28;20046;-78
2022/10/27 06:16:29;;;;;;;9.15;4.53;;;;;;;;;;5034222;28;20113;-78
2022/10/27 06:18:56;;;;;;;8.13;4.50;;;;;;;;;;5025731;28;20060;-79
2022/10/27 06:21:22;;;;;;;7.25;4.30;;;;;;;;;;5022329;28;20058;-79
2022/10/27 06:23:49;;;;;;;6.65;4.03;;;;;;;;;;5019383;28;20050;-78
2022/10/27 06:26:15;;;;;;;5.15;3.25;;;;;;;;;;5023515;28;20060;-79
2022/10/27 06:28:42;;;;;;;7.60;4.07;;;;;;;;;;5023572;28;20046;-79
2022/10/27 06:31:08;;;;;;;9.38;4.85;;;;;;;;;;5027947;28;20073;-78
2022/10/27 06:33:34;;;;;;;8.65;4.95;;;;;;;;;;5028922;28;20091;-79
2022/10/27 06:36:01;;;;;;;12.20;4.80;;;;;;;;;;5028069;28;20084;-79
2022/10/27 06:38:27;;;;;;;9.38;5.10;;;;;;;;;;5029743;28;20328;-79
2022/10/27 06:40:54;;;;;;;10.55;5.07;;;;;;;;;;5010683;28;20064;-80
2022/10/27 06:43:21;;;;;;;11.43;4.10;;;;;;;;;;5024950;28;20077;-79
2022/10/27 06:45:47;;;;;;;10.30;4.38;;;;;;;;;;5024881;28;20481;-78
2022/10/27 06:48:14;;;;;;;10.63;4.97;;;;;;;;;;5023935;28;20049;-79
2022/10/27 06:50:40;;;;;;;9.18;5.35;;;;;;;;;;5022602;28;20402;-80
2022/10/27 06:53:07;;;;;;;13.48;5.22;;;;;;;;;;5003096;28;20076;-79
2022/10/27 06:55:33;;;;;;;14.00;5.72;;;;;;;;;;5022641;28;20056;-80
2022/10/27 06:58:00;;;;;;;10.02;4.82;;;;;;;;;;5023251;28;20149;-80
2022/10/27 07:00:26;;;;;;;10.25;5.35;;;;;;;;;;5025209;28;20049;-80
2022/10/27 07:02:53;;;;;;;11.32;5.88;;;;;;;;;;5023174;28;20064;-80
2022/10/27 07:05:19;;;;;;;16.95;6.22;;;;;;;;;;5021931;28;20045;-79
2022/10/27 07:07:49;;;;;;;13.43;6.85;;;;;;;;;;5019056;28;20548;-78
2022/10/27 07:10:17;;;;;;;16.70;7.82;;;;;;;;;;5017224;28;20060;-80
2022/10/27 07:13:09;;;;;;;19.80;8.15;;;;;;;;;;5017240;28;20053;-80
2022/10/27 07:15:38;;;;;;;17.38;7.65;;;;;;;;;;5015547;28;20046;-80
2022/10/27 07:18:05;;;;;;;22.73;9.98;;;;;;;;;;5020215;28;20057;-81
2022/10/27 07:20:33;;;;;;;16.40;9.40;;;;;;;;;;5021919;28;20057;-80
2022/10/27 07:23:00;;;;;;;20.67;9.00;;;;;;;;;;5003716;28;20053;-80
2022/10/27 07:25:27;;;;;;;21.55;9.60;;;;;;;;;;5023429;28;20045;-80
2022/10/27 07:27:54;;;;;;;25.85;9.55;;;;;;;;;;5025438;28;20060;-80
2022/10/27 07:30:24;;;;;;;19.95;9.15;;;;;;;;;;5024416;28;20373;-80
2022/10/27 07:32:51;;;;;;;21.85;9.80;;;;;;;;;;5005112;28;20118;-79
2022/10/27 07:35:17;;;;;;;28.33;10.70;;;;;;;;;;5022675;28;20064;-80
2022/10/27 07:37:47;;;;;;;31.15;13.63;;;;;;;;;;5024129;28;20078;-80
2022/10/27 07:40:15;;;;;;;40.67;14.50;;;;;;;;;;5006276;28;20069;-80
2022/10/27 07:42:44;;;;;;;28.70;13.65;;;;;;;;;;5015661;28;20058;-80
2022/10/27 07:45:11;;;;;;;25.45;14.10;;;;;;;;;;5013488;28;20049;-80
2022/10/27 07:47:41;;;;;;;26.73;12.35;;;;;;;;;;5012493;28;20057;-78
2022/10/27 07:50:07;;;;;;;30.60;14.30;;;;;;;;;;5013455;28;20073;-80
2022/10/27 07:52:41;;;;;;;29.60;13.73;;;;;;;;;;5014009;28;20056;-80
2022/10/27 07:55:09;;;;;;;24.60;13.05;;;;;;;;;;5021714;28;20058;-80
2022/10/27 07:57:40;;;;;;;28.15;12.90;;;;;;;;;;5000982;28;20050;-80
2022/10/27 08:00:08;;;;;;;26.80;14.40;;;;;;;;;;5015839;28;20084;-80
2022/10/27 08:02:35;;;;;;;27.85;13.60;;;;;;;;;;5015213;28;20050;-80
2022/10/27 08:05:01;;;;;;;23.45;11.90;;;;;;;;;;5015379;28;20042;-80
2022/10/27 08:07:27;;;;;;;29.23;11.95;;;;;;;;;;5017578;28;20050;-80
2022/10/27 08:09:54;;;;;;;17.65;10.50;;;;;;;;;;5016249;28;20049;-80
2022/10/27 08:12:21;;;;;;;23.80;10.32;;;;;;;;;;5017776;28;20046;-80
2022/10/27 08:14:47;;;;;;;24.10;10.73;;;;;;;;;;5020279;28;20054;-80
2022/10/27 08:17:20;;;;;;;23.50;9.80;;;;;;;;;;5020207;28;20053;-80
2022/10/27 08:19:47;;;;;;;20.30;8.90;;;;;;;;;;5016119;28;20053;-80
2022/10/27 08:22:13;;;;;;;13.95;7.47;;;;;;;;;;5017085;28;20327;-79
2022/10/27 08:24:45;;;;;;;15.15;7.22;;;;;;;;;;5017256;28;20050;-80
2022/10/27 08:27:11;;;;;;;15.50;7.00;;;;;;;;;;5019640;28;20479;-80
2022/10/27 08:29:38;;;;;;;12.77;4.63;;;;;;;;;;5020290;28;20105;-80
2022/10/27 08:32:04;;;;;;;10.77;4.10;;;;;;;;;;5022212;28;20053;-81
2022/10/27 08:34:30;;;;;;;7.88;3.38;;;;;;;;;;5020719;28;20092;-80
2022/10/27 08:36:57;;;;;;;11.02;3.22;;;;;;;;;;5023259;28;20113;-80
2022/10/27 08:39:23;;;;;;;6.20;2.83;;;;;;;;;;5021761;28;20057;-81
2022/10/27 08:42:03;;;;;;;6.00;2.33;;;;;;;;;;5019923;28;20056;-80
2022/10/27 08:44:30;;;;;;;8.13;2.28;;;;;;;;;;5003124;28;20585;-81
2022/10/27 08:47:04;;;;;;;5.22;2.00;;;;;;;;;;5026043;28;20050;-79
2022/10/27 08:49:48;;;;;;;9.88;2.42;;;;;;;;;;5024709;28;20639;-80
2022/10/27 08:52:16;;;;;;;;;;;;;;;;;;5025483;28;20220;-80
2022/10/27 08:54:42;;;;;;;;;;;;;;;;;;5024270;28;19928;-80
2022/10/27 08:57:15;;;;;;;5.97;1.80;;;;;;;;;;5024880;28;19957;-80
2022/10/27 08:59:42;;;;;;;7.70;2.03;;;;;;;;;;5007453;28;20137;-80
2022/10/27 09:02:22;;;;;;;4.35;2.15;;;;;;;;;;5024700;28;20049;-80
2022/10/27 09:04:51;;;;;;;9.98;2.35;;;;;;;;;;5022269;28;20363;-79
2022/10/27 09:07:23;;;;;;;5.40;2.08;;;;;;;;;;5023672;28;20058;-80
2022/10/27 09:09:52;;;;;;;4.97;1.42;;;;;;;;;;5023615;28;20057;-81
2022/10/27 09:12:28;;;;;;;5.88;1.67;;;;;;;;;;5024833;28;20725;-80
2022/10/27 09:14:57;;;;;;;6.53;1.55;;;;;;;;;;5026280;28;20054;-81
2022/10/27 09:17:30;;;;;;;8.13;1.80;;;;;;;;;;5028120;28;20133;-79
2022/10/27 09:20:00;;;;;;;4.78;1.70;;;;;;;;;;5025344;28;20077;-81
2022/10/27 09:22:28;;;;;;;4.20;1.65;;;;;;;;;;5026723;28;20054;-79
2022/10/27 09:24:58;;;;;;;3.53;1.70;;;;;;;;;;5026121;28;20109;-81
2022/10/27 09:27:25;;;;;;;6.47;1.83;;;;;;;;;;5027671;28;20525;-80
2022/10/27 09:29:52;;;;;;;6.65;1.85;;;;;;;;;;5026971;28;20065;-80
2022/10/27 09:32:28;;;;;;;4.80;1.77;;;;;;;;;;5027060;28;20068;-79
2022/10/27 09:35:02;;;;;;;5.55;2.00;;;;;;;;;;5027810;28;20050;-80
2022/10/27 09:37:30;;;;;;;4.30;1.95;;;;;;;;;;5015415;28;20062;-80
2022/10/27 09:39:58;;;;;;;10.02;1.67;;;;;;;;;;5035330;28;20093;-79
2022/10/27 09:42:29;;;;;;;5.60;1.52;;;;;;;;;;5030954;28;20060;-80
2022/10/27 09:44:57;;;;;;;4.45;1.67;;;;;;;;;;5026830;28;20046;-80
2022/10/27 09:47:25;;;;;;;4.70;1.60;;;;;;;;;;5010091;28;20084;-80
2022/10/27 09:49:58;;;;;;;8.10;2.10;;;;;;;;;;5026258;28;20056;-81
2022/10/27 09:52:30;;;;;;;6.00;2.03;;;;;;;;;;5008829;28;20050;-79
2022/10/27 09:54:57;;;;;;;3.53;1.90;;;;;;;;;;5028728;28;20046;-80
2022/10/27 09:57:26;;;;;;;5.57;1.40;;;;;;;;;;5030833;28;20053;-80
2022/10/27 09:59:58;;;;;;;1.75;1.20;;;;;;;;;;5029499;28;20103;-79
2022/10/27 10:02:32;;;;;;;5.65;1.70;;;;;;;;;;5031715;28;20074;-81
2022/10/27 10:04:59;;;;;;;4.40;1.30;;;;;;;;;;5013314;28;20054;-81
2022/10/27 10:07:36;;;;;;;6.20;1.40;;;;;;;;;;5033727;28;20050;-80
2022/10/27 10:10:21;;;;;;;5.28;2.10;;;;;;;;;;5016600;28;20153;-80
2022/10/27 10:13:00;;;;;;;2.03;1.05;;;;;;;;;;5033405;28;20046;-81
2022/10/27 10:15:27;;;;;;;2.22;0.80;;;;;;;;;;5034345;28;20102;-81
2022/10/27 10:17:57;;;;;;;4.47;1.00;;;;;;;;;;5027554;28;20053;-81
2022/10/27 10:20:40;;;;;;;3.17;0.93;;;;;;;;;;5025866;28;20046;-81
2022/10/27 10:23:24;;;;;;;2.78;0.90;;;;;;;;;;5025632;28;20080;-81
2022/10/27 10:25:51;;;;;;;2.38;0.85;;;;;;;;;;5026158;28;20106;-81
2022/10/27 10:28:19;;;;;;;2.85;1.10;;;;;;;;;;5027211;28;20148;-79
2022/10/27 10:30:49;;;;;;;4.18;0.80;;;;;;;;;;5021784;28;20049;-79
2022/10/27 10:33:16;;;;;;;2.20;1.13;;;;;;;;;;5018618;28;20076;-79
2022/10/27 10:35:51;;;;;;;1.63;0.70;;;;;;;;;;5019666;28;20046;-79
2022/10/27 10:38:17;;;;;;;;;;;;;;;;;;5004082;28;20411;-80
2022/10/27 10:40:54;;;;;;;4.75;0.70;;;;;;;;;;5024625;28;19952;-80
2022/10/27 10:43:21;;;;;;;3.15;2.22;;;;;;;;;;5005403;28;20045;-81
2022/10/27 10:45:53;;;;;;;2.58;1.48;;;;;;;;;;5022156;28;20046;-81
2022/10/27 10:48:31;;;;;;;2.90;0.70;;;;;;;;;;5004902;28;20054;-80
2022/10/27 10:50:57;;;;;;;3.05;1.00;;;;;;;;;;5022130;28;20181;-78
2022/10/27 10:53:32;;;;;;;4.53;1.00;;;;;;;;;;5020579;28;20685;-79
2022/10/27 10:56:03;;;;;;;1.88;0.85;;;;;;;;;;5023398;28;20049;-78
2022/10/27 10:58:31;;;;;;;3.08;0.70;;;;;;;;;;5007272;28;20054;-78
2022/10/27 11:00:59;;;;;;;1.75;0.90;;;;;;;;;;5021296;28;20056;-78
2022/10/27 11:03:30;;;;;;;2.22;0.90;;;;;;;;;;5003063;28;20054;-78
2022/10/27 11:06:02;;;;;;;2.47;0.90;;;;;;;;;;5021036;28;20089;-79
2022/10/27 11:08:36;;;;;;;2.78;0.75;;;;;;;;;;5022362;28;20453;-79
2022/10/27 11:11:12;;;;;;;2.50;0.90;;;;;;;;;;5025117;28;20053;-80
2022/10/27 11:13:50;;;;;;;2.03;0.70;;;;;;;;;;5023121;28;20125;-79
2022/10/27 11:16:17;;;;;;;2.42;0.95;;;;;;;;;;5008151;28;20089;-80
2022/10/27 11:18:47;;;;;;;2.10;0.80;;;;;;;;;;5020067;28;20109;-79
2022/10/27 11:21:20;;;;;;;3.70;0.90;;;;;;;;;;5021594;28;20050;-81
2022/10/27 11:24:10;;;;;;;2.35;0.80;;;;;;;;;;5002906;28;20073;-79
2022/10/27 11:26:39;;;;;;;1.40;0.70;;;;;;;;;;5021448;28;20235;-80
2022/10/27 11:29:09;;;;;;;1.77;0.60;;;;;;;;;;5022630;28;20110;-80
2022/10/27 11:31:54;;;;;;;1.55;0.70;;;;;;;;;;5005138;28;20058;-79
2022/10/27 11:34:20;;;;;;;;;;;;;;;;;;5003426;28;20042;-78
2022/10/27 11:36:50;;;;;;;3.22;0.60;;;;;;;;;;5004042;28;19928;-79
2022/10/27 11:39:43;;;;;;;1.33;0.60;;;;;;;;;;5021312;28;20050;-81
2022/10/27 11:42:20;;;;;;;1.50;0.85;;;;;;;;;;5019105;28;20056;-79
2022/10/27 11:44:47;;;;;;;3.00;0.65;;;;;;;;;;5019958;28;20500;-80
2022/10/27 11:47:25;;;;;;;1.50;0.70;;;;;;;;;;5025778;28;20046;-81
2022/10/27 11:49:59;;;;;;;1.33;0.68;;;;;;;;;;5005778;28;20041;-79
2022/10/27 11:52:43;;;;;;;0.65;0.65;;;;;;;;;;5006937;28;20042;-79
2022/10/27 11:55:11;;;;;;;1.48;0.70;;;;;;;;;;5021996;28;20407;-80
2022/10/27 11:57:47;;;;;;;2.35;0.60;;;;;;;;;;5008570;28;20054;-80
2022/10/27 12:00:24;;;;;;;1.25;0.80;;;;;;;;;;5021900;28;20058;-79
2022/10/27 12:03:06;;;;;;;1.23;0.65;;;;;;;;;;5007947;28;20050;-79
2022/10/27 12:05:54;;;;;;;3.45;0.80;;;;;;;;;;5026120;28;20275;-80
2022/10/27 12:08:39;;;;;;;1.50;0.52;;;;;;;;;;5024204;28;20053;-80
2022/10/27 12:11:24;;;;;;;2.00;0.77;;;;;;;;;;5025850;28;20068;-79
2022/10/27 12:13:54;;;;;;;0.90;0.65;;;;;;;;;;5023237;28;20105;-79
2022/10/27 12:16:40;;;;;;;1.65;0.77;;;;;;;;;;5024771;28;20045;-79
2022/10/27 12:19:16;;;;;;;2.33;0.90;;;;;;;;;;5023815;28;20052;-79
2022/10/27 12:21:47;;;;;;;1.95;0.70;;;;;;;;;;5027872;28;20060;-78
2022/10/27 12:24:34;;;;;;;1.20;0.70;;;;;;;;;;5026942;28;20137;-80
2022/10/27 12:27:11;;;;;;;1.33;0.80;;;;;;;;;;5030442;28;20046;-80
2022/10/27 12:29:41;;;;;;;1.48;0.73;;;;;;;;;;5029354;28;20054;-80
2022/10/27 12:32:11;;;;;;;2.55;0.60;;;;;;;;;;5029538;28;20081;-79
2022/10/27 12:34:47;;;;;;;1.63;0.70;;;;;;;;;;5028513;28;20092;-79
2022/10/27 12:37:17;;;;;;;1.73;0.70;;;;;;;;;;5030868;28;20105;-81
2022/10/27 12:39:51;;;;;;;;;;;;;;;;;;5030925;28;20068;-80
2022/10/27 12:42:47;;;;;;;2.97;0.50;;;;;;;;;;5033406;28;19952;-79
2022/10/27 12:45:26;;;;;;;1.30;0.60;;;;;;;;;;5033560;28;20053;-80
2022/10/27 12:47:55;;;;;;;1.17;0.60;;;;;;;;;;5017373;28;20100;-80
2022/10/27 12:50:42;;;;;;;1.60;0.60;;;;;;;;;;5016866;28;20053;-80
2022/10/27 12:53:30;;;;;;;3.15;0.68;;;;;;;;;;5019355;28;20054;-80
2022/10/27 12:55:56;;;;;;;0.83;0.50;;;;;;;;;;5036360;28;20076;-80
2022/10/27 12:58:32;;;;;;;0.90;0.50;;;;;;;;;;5037539;28;20045;-81
2022/10/27 13:00:58;;;;;;;1.85;0.50;;;;;;;;;;5028701;28;20054;-79
2022/10/27 13:03:31;;;;;;;0.80;0.40;;;;;;;;;;5004283;28;20364;-80
2022/10/27 13:06:24;;;;;;;1.65;0.50;;;;;;;;;;5021692;28;20100;-79
2022/10/27 13:09:03;;;;;;;1.85;0.55;;;;;;;;;;5021373;28;20072;-79
2022/10/27 13:11:31;;;;;;;2.10;0.57;;;;;;;;;;5023124;28;20381;-79
2022/10/27 13:13:58;;;;;;;1.70;0.65;;;;;;;;;;5003800;28;20054;-81
2022/10/27 13:16:37;;;;;;;0.75;0.40;;;;;;;;;;5022331;28;20109;-79
2022/10/27 13:19:19;;;;;;;3.58;0.80;;;;;;;;;;5021650;28;20050;-80
2022/10/27 13:21:48;;;;;;;2.85;0.40;;;;;;;;;;5022952;28;20080;-79
2022/10/27 13:24:27;;;;;;;2.17;0.47;;;;;;;;;;5021941;28;20053;-79
2022/10/27 13:27:12;;;;;;;0.73;0.40;;;;;;;;;;5026160;28;20045;-80
2022/10/27 13:29:44;;;;;;;2.17;0.50;;;;;;;;;;5025342;28;20245;-79
2022/10/27 13:32:25;;;;;;;3.70;0.50;;;;;;;;;;5009139;28;20118;-80
2022/10/27 13:35:00;;;;;;;0.90;0.43;;;;;;;;;;5006102;28;20123;-79
2022/10/27 13:37:36;;;;;;;0.60;0.40;;;;;;;;;;5027179;28;20054;-80
2022/10/27 13:40:21;;;;;;;0.68;0.50;;;;;;;;;;5010698;28;20056;-79
2022/10/27 13:42:51;;;;;;;1.13;0.60;;;;;;;;;;5024908;28;20246;-80
2022/10/27 13:45:24;;;;;;;0.85;0.40;;;;;;;;;;5029585;28;20050;-80
2022/10/27 13:48:06;;;;;;;0.70;0.40;;;;;;;;;;5020970;28;20049;-79
2022/10/27 13:50:43;;;;;;;1.35;0.60;;;;;;;;;;5018499;28;20053;-79
2022/10/27 13:53:19;;;;;;;4.43;0.52;;;;;;;;;;4999121;28;20056;-77
2022/10/27 13:55:54;;;;;;;1.13;0.52;;;;;;;;;;5020796;28;20057;-79
2022/10/27 13:58:23;;;;;;;;;;;;;;;;;;5012174;28;20109;-78
2022/10/27 14:01:09;;;;;;;3.92;0.45;;;;;;;;;;5010020;28;20361;-80
2022/10/27 14:03:58;;;;;;;0.68;0.40;;;;;;;;;;5030244;28;20061;-80
2022/10/27 14:06:44;;;;;;;3.00;0.50;;;;;;;;;;5034540;28;20076;-80
2022/10/27 14:09:22;;;;;;;1.00;0.43;;;;;;;;;;5027723;28;20172;-80
2022/10/27 14:11:50;;;;;;;3.78;0.57;;;;;;;;;;5010609;28;20061;-79
2022/10/27 14:14:20;;;;;;;1.35;0.60;;;;;;;;;;5027110;28;20092;-79
2022/10/27 14:16:46;;;;;;;3.38;0.80;;;;;;;;;;5027254;28;20081;-80
2022/10/27 14:19:14;;;;;;;1.02;0.65;;;;;;;;;;5024945;28;20106;-80
2022/10/27 14:21:45;;;;;;;4.00;0.60;;;;;;;;;;5024629;28;20054;-78
2022/10/27 14:24:16;;;;;;;1.42;0.55;;;;;;;;;;5018899;28;20187;-79
2022/10/27 14:26:42;;;;;;;1.80;0.63;;;;;;;;;;5028613;28;20056;-80
2022/10/27 14:29:19;;;;;;;1.90;0.50;;;;;;;;;;5027913;28;20050;-80
2022/10/27 14:31:46;;;;;;;1.50;0.65;;;;;;;;;;5027678;28;20332;-78
2022/10/27 14:34:14;;;;;;;2.30;0.63;;;;;;;;;;5026566;28;20053;-80
2022/10/27 14:36:41;;;;;;;3.50;0.70;;;;;;;;;;5028209;28;20642;-80
2022/10/27 14:39:09;;;;;;;1.48;0.60;;;;;;;;;;5026759;28;20045;-80
2022/10/27 14:41:36;;;;;;;1.73;0.50;;;;;;;;;;5027592;28;20085;-80
2022/10/27 14:44:05;;;;;;;2.17;0.70;;;;;;;;;;5025764;28;20056;-81
2022/10/27 14:46:43;;;;;;;2.67;0.57;;;;;;;;;;5027078;28;20149;-80
2022/10/27 14:49:15;;;;;;;5.68;1.00;;;;;;;;;;5027400;28;20060;-80
2022/10/27 14:51:44;;;;;;;2.53;0.85;;;;;;;;;;5029622;28;20056;-80
2022/10/27 14:54:13;;;;;;;1.70;0.50;;;;;;;;;;5033858;28;20054;-80
2022/10/27 14:56:39;;;;;;;3.80;0.80;;;;;;;;;;5032188;28;20060;-80
2022/10/27 14:59:34;;;;;;;4.50;0.80;;;;;;;;;;5027751;28;20058;-80